Hlavní strana
METAR-TAF:

METAR-TAF

Letiště :

Mezinárodní letiště Norman Manley

Kingston, Jamajka

zeměpisná šířka: 17-56N, zeměpisná délka: 076-47W, výška: 3 m

Aktuální stav počasí

Zpráva byla vytvořena před 21 minutami, v 20:00 UTC
Jihovýchodní vítr 24 kt
Teplota 32°C
Vlhkost vzduchu 71%
Tlak 1013 hPa
Viditelnost 10 km a více
Skoro jasno ve výšce 2200 ft
Skoro jasno ve výšce 2400 ft, Cumulonimbus.

METAR: MKJP 182000Z 14024KT 9999 FEW022 FEW024CB 32/26 Q1013

Čas: 15:21 (20:21 UTC)

Předpověď počasí

Zpráva byla vytvořena před 3 hodinami a 6 minutami, v 17:15 UTC
Předpověď platná od 18 v 18 UTC do 19 v 18 UTC
Jihovýchodní vítr 20 kt
Viditelnost 10 km a více
Skoro jasno ve výšce 2400 ft
Změna
od 19 v 01 UTC do 19 v 03 UTC
Jihovýchodní vítr 10 kt
Změna
od 19 v 06 UTC do 19 v 08 UTC
Severní vítr 5 kt
Změna
od 19 v 13 UTC do 19 v 15 UTC
Jihovýchodní vítr 20 kt

TAF: MKJP 181715Z 1818/1918 14020KT 9999 FEW024 BECMG 1901/1903 14010KT BECMG 1906/1908 35005KT BECMG 1913/1915 14020KT

Stav a předpovědi počasí z více než 4 000 letišť (zprávy METAR a TAF).

Červené a žluté tečky na mapě představují dostupné meteorologické stanice.

Když kurzor umístíte na tečku, zobrazí se název stanice.

Pak kliknutím zobrazíte stav a předpověď počasí.

Chcete-li změnit mapu, kliknutím na zelené tlačítko se znaménkem +mapu přiblížíte, kliknutím na zelené tlačítko se znaménkem – mapu oddálíte a kliknutím na zelené šipky přejdete na sousední mapy.


METAR-TAF: